createdAt,value
2023-07-17T00:00:45.134Z,24.19
2023-07-17T00:03:15.213Z,24.11
2023-07-17T00:05:43.678Z,24.08
2023-07-17T00:08:11.885Z,24.10
2023-07-17T00:10:41.917Z,24.07
2023-07-17T00:13:10.309Z,23.97
2023-07-17T00:15:38.627Z,23.91
2023-07-17T00:18:07.487Z,23.89
2023-07-17T00:20:36.082Z,23.80
2023-07-17T00:23:06.415Z,23.72
2023-07-17T00:25:37.087Z,23.72
2023-07-17T00:28:05.218Z,23.66
2023-07-17T00:30:33.514Z,23.55
2023-07-17T00:33:02.275Z,23.53
2023-07-17T00:35:30.543Z,23.54
2023-07-17T00:37:58.746Z,23.62
2023-07-17T00:40:27.393Z,23.56
2023-07-17T00:42:59.116Z,23.51
2023-07-17T00:45:33.109Z,23.51
2023-07-17T00:48:02.051Z,23.49
2023-07-17T00:50:30.789Z,23.41
2023-07-17T00:52:59.188Z,23.50
2023-07-17T00:55:27.798Z,23.45
2023-07-17T00:57:56.526Z,23.48
2023-07-17T01:00:25.114Z,23.45
2023-07-17T01:02:54.319Z,23.44
2023-07-17T01:05:22.960Z,23.49
2023-07-17T01:07:55.263Z,23.46
2023-07-17T01:10:24.178Z,23.40
2023-07-17T01:12:52.556Z,23.51
2023-07-17T01:15:21.036Z,23.46
2023-07-17T01:17:49.694Z,23.62
2023-07-17T01:20:18.187Z,23.55
2023-07-17T01:23:06.084Z,23.54
2023-07-17T01:25:35.047Z,23.58
2023-07-17T01:28:04.010Z,23.62
2023-07-17T01:30:32.377Z,23.59
2023-07-17T01:33:00.960Z,23.58
2023-07-17T01:35:29.126Z,23.57
2023-07-17T01:37:57.462Z,23.54
2023-07-17T01:40:28.953Z,23.48
2023-07-17T01:42:57.102Z,23.42
2023-07-17T01:45:25.747Z,23.36
2023-07-17T01:47:53.947Z,23.33
2023-07-17T01:50:22.076Z,23.32
2023-07-17T01:52:50.628Z,23.24
2023-07-17T01:55:18.765Z,23.19
2023-07-17T01:57:46.906Z,23.08
2023-07-17T02:00:15.594Z,22.98
2023-07-17T02:02:43.588Z,22.93
2023-07-17T02:05:12.161Z,22.87
2023-07-17T02:07:41.543Z,22.88
2023-07-17T02:10:10.172Z,22.83
2023-07-17T02:12:38.634Z,22.89
2023-07-17T02:15:09.330Z,22.76
2023-07-17T02:17:38.923Z,22.62
2023-07-17T02:20:12.138Z,22.62
2023-07-17T02:22:42.370Z,22.72
2023-07-17T02:25:10.739Z,22.59
2023-07-17T02:27:39.059Z,22.54
2023-07-17T02:30:08.160Z,22.60
2023-07-17T02:32:36.359Z,22.59
2023-07-17T02:35:05.696Z,22.61
2023-07-17T02:37:34.529Z,22.60
2023-07-17T02:40:13.856Z,22.63
2023-07-17T02:42:42.682Z,22.66
2023-07-17T02:45:11.510Z,22.62
2023-07-17T02:47:39.781Z,22.72
2023-07-17T02:50:08.931Z,22.68
2023-07-17T02:52:37.594Z,22.66
2023-07-17T02:55:06.480Z,22.71
2023-07-17T02:57:35.950Z,22.75
2023-07-17T03:00:26.017Z,22.83
2023-07-17T03:02:54.635Z,22.91
2023-07-17T03:05:22.844Z,22.90
2023-07-17T03:07:52.065Z,22.90
2023-07-17T03:10:21.010Z,22.93
2023-07-17T03:12:49.231Z,22.90
2023-07-17T03:15:17.896Z,22.87
2023-07-17T03:17:46.701Z,22.84
2023-07-17T03:20:15.381Z,22.85
2023-07-17T03:22:43.841Z,22.77
2023-07-17T03:25:12.431Z,22.71
2023-07-17T03:27:40.538Z,22.75
2023-07-17T03:30:09.434Z,22.78
2023-07-17T03:32:40.021Z,22.74
2023-07-17T03:35:09.073Z,22.77
2023-07-17T03:37:37.845Z,22.73
2023-07-17T03:40:08.665Z,22.72
2023-07-17T03:42:37.116Z,22.71
2023-07-17T03:45:07.283Z,22.78
2023-07-17T03:47:36.389Z,22.80
2023-07-17T03:50:05.724Z,22.83
2023-07-17T03:52:34.443Z,22.82
2023-07-17T03:55:02.732Z,22.82
2023-07-17T03:57:31.565Z,22.85
2023-07-17T04:00:00.166Z,22.89
2023-07-17T04:02:28.573Z,22.92
2023-07-17T04:04:57.663Z,22.95
2023-07-17T04:07:26.283Z,22.94
2023-07-17T04:09:54.604Z,22.90
2023-07-17T04:12:23.162Z,22.96
2023-07-17T04:14:51.494Z,22.99
2023-07-17T04:17:20.084Z,22.99
2023-07-17T04:19:49.000Z,23.02
2023-07-17T04:22:17.609Z,23.06
2023-07-17T04:24:46.247Z,23.09
2023-07-17T04:27:14.724Z,23.14
2023-07-17T04:29:43.298Z,23.16
2023-07-17T04:32:11.689Z,23.19
2023-07-17T04:34:40.240Z,23.21
2023-07-17T04:37:09.072Z,23.24
2023-07-17T04:39:37.402Z,23.24
2023-07-17T04:42:06.169Z,23.27
2023-07-17T04:44:34.578Z,23.32
2023-07-17T04:47:03.578Z,23.36
2023-07-17T04:49:32.271Z,23.44
2023-07-17T04:52:00.530Z,23.50
2023-07-17T04:54:29.090Z,23.52
2023-07-17T04:56:57.669Z,23.58
2023-07-17T04:59:26.313Z,23.61
2023-07-17T05:01:55.600Z,23.65
2023-07-17T05:04:24.953Z,23.69
2023-07-17T05:06:54.024Z,23.74
2023-07-17T05:09:22.176Z,23.73
2023-07-17T05:11:51.802Z,23.80
2023-07-17T05:14:20.388Z,23.82
2023-07-17T05:16:48.724Z,23.87
2023-07-17T05:19:18.357Z,23.91
2023-07-17T05:21:46.608Z,23.99
2023-07-17T05:24:15.064Z,24.03
2023-07-17T05:26:45.267Z,24.07
2023-07-17T05:29:13.747Z,24.17
2023-07-17T05:31:42.347Z,24.23
2023-07-17T05:34:10.752Z,24.30
2023-07-17T05:36:40.193Z,24.38
2023-07-17T05:39:08.503Z,24.44
2023-07-17T05:41:37.049Z,24.48
2023-07-17T05:44:05.822Z,24.53
2023-07-17T05:46:34.046Z,24.61
2023-07-17T05:49:02.750Z,24.64
2023-07-17T05:51:32.619Z,24.65
2023-07-17T05:54:00.843Z,24.73
2023-07-17T05:56:29.274Z,24.76
2023-07-17T05:58:57.692Z,24.79
2023-07-17T06:01:26.174Z,24.84
2023-07-17T06:03:55.587Z,24.89
2023-07-17T06:06:23.940Z,24.94
2023-07-17T06:08:52.334Z,24.98
2023-07-17T06:11:21.017Z,25.06
2023-07-17T06:13:49.284Z,25.07
2023-07-17T06:16:18.886Z,25.14
2023-07-17T06:18:47.683Z,25.21
2023-07-17T06:21:16.202Z,25.28
2023-07-17T06:23:44.671Z,25.33
2023-07-17T06:26:13.147Z,25.41
2023-07-17T06:28:42.270Z,25.52
2023-07-17T06:31:10.727Z,25.64
2023-07-17T06:33:39.200Z,25.75
2023-07-17T06:36:07.450Z,25.83
2023-07-17T06:38:35.740Z,25.89
2023-07-17T06:41:06.109Z,26.02
2023-07-17T06:43:35.056Z,26.11
2023-07-17T06:46:05.716Z,26.25
2023-07-17T06:48:34.025Z,26.39
2023-07-17T06:51:02.403Z,26.51
2023-07-17T06:53:30.986Z,26.66
2023-07-17T06:56:00.966Z,26.76
2023-07-17T06:58:29.367Z,26.92
2023-07-17T07:00:59.001Z,27.12
2023-07-17T07:03:29.049Z,27.41
2023-07-17T07:06:00.541Z,27.55
2023-07-17T07:08:30.636Z,27.74
2023-07-17T07:11:02.001Z,28.05
2023-07-17T07:13:30.854Z,28.30
2023-07-17T07:15:59.308Z,28.36
2023-07-17T07:18:27.754Z,28.68
2023-07-17T07:20:56.075Z,28.89
2023-07-17T07:23:24.582Z,29.04
2023-07-17T07:25:53.206Z,29.21
2023-07-17T07:28:22.461Z,29.38
2023-07-17T07:31:00.517Z,29.58
2023-07-17T07:33:29.616Z,29.85
2023-07-17T07:35:58.373Z,29.97
2023-07-17T07:38:27.061Z,30.08
2023-07-17T07:40:55.245Z,30.62
2023-07-17T07:43:23.870Z,30.68
2023-07-17T07:45:52.414Z,30.85
2023-07-17T07:48:20.854Z,30.96
2023-07-17T07:50:49.490Z,31.17
2023-07-17T07:53:17.791Z,31.36
2023-07-17T07:55:45.943Z,31.40
2023-07-17T07:58:14.481Z,31.64
2023-07-17T08:00:42.787Z,31.84
2023-07-17T08:03:11.440Z,32.11
2023-07-17T08:05:41.259Z,32.05
2023-07-17T08:08:10.998Z,32.32
2023-07-17T08:10:39.342Z,32.46
2023-07-17T08:13:08.060Z,32.75
2023-07-17T08:15:36.986Z,33.06
2023-07-17T08:18:05.481Z,33.08
2023-07-17T08:20:34.691Z,33.06
2023-07-17T08:23:03.325Z,33.68
2023-07-17T08:25:31.757Z,33.85
2023-07-17T08:28:00.011Z,33.91
2023-07-17T08:30:28.856Z,33.77
2023-07-17T08:32:57.136Z,33.92
2023-07-17T08:35:25.487Z,34.00
2023-07-17T08:37:54.134Z,33.97
2023-07-17T08:40:23.429Z,34.02
2023-07-17T08:42:52.449Z,34.28
2023-07-17T08:45:23.877Z,33.99
2023-07-17T08:47:53.796Z,34.24
2023-07-17T08:50:23.116Z,34.13
2023-07-17T08:52:52.412Z,34.64
2023-07-17T08:55:22.046Z,34.69
2023-07-17T08:57:54.189Z,34.46
2023-07-17T09:00:24.376Z,34.34
2023-07-17T09:02:52.917Z,34.38
2023-07-17T09:05:21.315Z,34.48
2023-07-17T09:07:49.947Z,34.49
2023-07-17T09:10:23.706Z,34.72
2023-07-17T09:12:55.980Z,34.93
2023-07-17T09:15:26.259Z,34.59
2023-07-17T09:17:54.980Z,34.71
2023-07-17T09:20:23.626Z,34.96
2023-07-17T09:22:57.117Z,34.95
2023-07-17T09:25:29.597Z,34.72
2023-07-17T09:27:59.172Z,34.98
2023-07-17T09:30:28.257Z,35.13
2023-07-17T09:33:07.674Z,35.31
2023-07-17T09:35:36.767Z,35.27
2023-07-17T09:38:10.736Z,35.07
2023-07-17T09:40:39.268Z,34.99
2023-07-17T09:43:07.868Z,35.10
2023-07-17T09:45:37.290Z,34.74
2023-07-17T09:48:07.129Z,34.91
2023-07-17T09:50:36.452Z,35.26
2023-07-17T09:53:07.380Z,35.20
2023-07-17T09:55:36.973Z,35.31
2023-07-17T09:58:06.424Z,35.01
2023-07-17T10:00:35.917Z,35.37
2023-07-17T10:03:18.383Z,35.30
2023-07-17T10:05:48.342Z,35.13
2023-07-17T10:08:18.957Z,35.08
2023-07-17T10:10:47.106Z,35.02
2023-07-17T10:13:16.796Z,35.13
2023-07-17T10:15:46.040Z,35.42
2023-07-17T10:18:14.493Z,35.67
2023-07-17T10:20:53.708Z,35.48
2023-07-17T10:23:31.055Z,35.02
2023-07-17T10:26:10.049Z,35.13
2023-07-17T10:28:38.961Z,35.26
2023-07-17T10:31:11.821Z,35.11
2023-07-17T10:33:40.309Z,35.27
2023-07-17T10:36:14.316Z,35.09
2023-07-17T10:38:48.548Z,34.92
2023-07-17T10:41:17.046Z,34.92
2023-07-17T10:44:10.123Z,34.92
2023-07-17T10:46:43.231Z,34.86
2023-07-17T10:49:13.486Z,34.87
2023-07-17T10:51:46.765Z,34.75
2023-07-17T10:54:18.364Z,34.76
2023-07-17T10:56:48.586Z,34.92
2023-07-17T10:59:21.086Z,34.91
2023-07-17T11:01:49.545Z,34.83
2023-07-17T11:04:20.083Z,34.65
2023-07-17T11:06:48.660Z,34.49
2023-07-17T11:09:17.652Z,34.33
2023-07-17T11:11:47.194Z,34.30
2023-07-17T11:14:15.657Z,34.46
2023-07-17T11:16:44.466Z,34.49
2023-07-17T11:19:13.039Z,34.58
2023-07-17T11:21:41.278Z,34.56
2023-07-17T11:24:09.935Z,34.52
2023-07-17T11:26:39.825Z,34.40
2023-07-17T11:29:08.947Z,34.10
2023-07-17T11:31:37.803Z,33.78
2023-07-17T11:34:09.998Z,33.56
2023-07-17T11:36:46.062Z,33.39
2023-07-17T11:39:22.476Z,33.22
2023-07-17T11:41:57.523Z,33.11
2023-07-17T11:44:28.215Z,33.00
2023-07-17T11:47:07.770Z,32.97
2023-07-17T11:49:36.760Z,33.10
2023-07-17T11:52:16.961Z,33.24
2023-07-17T11:54:45.820Z,33.24
2023-07-17T11:57:14.100Z,33.26
2023-07-17T11:59:46.407Z,33.25
2023-07-17T12:02:15.127Z,33.32
2023-07-17T12:04:43.561Z,33.42
2023-07-17T12:07:21.216Z,33.46
2023-07-17T12:09:51.534Z,33.45
2023-07-17T12:12:19.936Z,33.40
2023-07-17T12:14:48.178Z,33.50
2023-07-17T12:17:16.725Z,33.55
2023-07-17T12:19:44.950Z,33.68
2023-07-17T12:24:44.695Z,33.68
2023-07-17T12:27:13.112Z,33.79
2023-07-17T12:29:41.557Z,33.86
2023-07-17T12:32:10.234Z,33.68
2023-07-17T12:34:40.428Z,33.67
2023-07-17T12:37:09.249Z,33.64
2023-07-17T12:39:37.890Z,33.48
2023-07-17T12:42:06.336Z,33.23
2023-07-17T12:44:34.753Z,33.05
2023-07-17T12:47:03.250Z,32.96
2023-07-17T12:49:31.651Z,33.12
2023-07-17T12:52:01.796Z,33.37
2023-07-17T12:54:30.449Z,33.48
2023-07-17T12:56:58.903Z,33.56
2023-07-17T12:59:27.535Z,33.56
2023-07-17T13:01:59.902Z,33.58
2023-07-17T13:04:29.999Z,33.67
2023-07-17T13:06:58.417Z,33.77
2023-07-17T13:09:28.938Z,33.94
2023-07-17T13:11:58.066Z,33.88
2023-07-17T13:14:26.615Z,33.95
2023-07-17T13:16:56.994Z,33.96
2023-07-17T13:19:26.807Z,33.75
2023-07-17T13:21:54.929Z,33.67
2023-07-17T13:24:24.388Z,33.70
2023-07-17T13:26:53.386Z,33.83
2023-07-17T13:29:22.462Z,33.75
2023-07-17T13:31:51.026Z,33.81
2023-07-17T13:34:19.672Z,33.82
2023-07-17T13:36:47.773Z,33.83
2023-07-17T13:39:16.512Z,33.80
2023-07-17T13:41:47.614Z,33.64
2023-07-17T13:44:17.622Z,33.48
2023-07-17T13:46:51.264Z,33.26
2023-07-17T13:49:19.539Z,33.06
2023-07-17T13:51:49.425Z,32.99
2023-07-17T13:54:20.891Z,32.80
2023-07-17T13:59:21.189Z,32.43
2023-07-17T14:01:49.613Z,32.65
2023-07-17T14:04:18.320Z,32.56
2023-07-17T14:06:47.154Z,32.42
2023-07-17T14:09:15.327Z,32.11
2023-07-17T14:11:45.586Z,31.84
2023-07-17T14:14:13.770Z,31.84
2023-07-17T14:16:42.066Z,31.86
2023-07-17T14:19:10.727Z,31.54
2023-07-17T14:21:39.122Z,31.71
2023-07-17T14:24:07.412Z,31.45
2023-07-17T14:26:35.793Z,31.17
2023-07-17T14:29:04.074Z,31.08
2023-07-17T14:31:32.368Z,30.83
2023-07-17T14:34:00.988Z,30.67
2023-07-17T14:36:29.385Z,30.29
2023-07-17T14:38:57.541Z,30.09
2023-07-17T14:41:26.266Z,30.57
2023-07-17T14:43:54.926Z,30.27
2023-07-17T14:46:23.593Z,30.13
2023-07-17T14:48:52.215Z,30.18
2023-07-17T14:51:20.732Z,30.26
2023-07-17T14:53:50.156Z,30.24
2023-07-17T14:56:19.144Z,30.40
2023-07-17T14:58:47.715Z,30.32
2023-07-17T15:01:15.907Z,30.17
2023-07-17T15:03:44.704Z,30.24
2023-07-17T15:06:13.169Z,30.24
2023-07-17T15:08:41.361Z,29.98
2023-07-17T15:11:10.818Z,29.85
2023-07-17T15:13:39.243Z,29.86
2023-07-17T15:16:07.504Z,30.06
2023-07-17T15:18:36.006Z,30.06
2023-07-17T15:21:04.457Z,30.20
2023-07-17T15:23:32.633Z,30.33
2023-07-17T15:26:01.146Z,30.53
2023-07-17T15:28:29.695Z,30.69
2023-07-17T15:30:58.236Z,30.51
2023-07-17T15:33:28.731Z,30.66
2023-07-17T15:35:57.238Z,30.55
2023-07-17T15:38:25.427Z,30.47
2023-07-17T15:40:53.942Z,30.48
2023-07-17T15:43:22.169Z,30.48
2023-07-17T15:45:50.283Z,30.41
2023-07-17T15:48:19.354Z,30.46
2023-07-17T15:50:47.785Z,30.34
2023-07-17T15:53:16.114Z,30.52
2023-07-17T15:55:44.608Z,30.55
2023-07-17T15:58:13.076Z,30.37
2023-07-17T16:00:43.593Z,30.56
2023-07-17T16:03:12.515Z,30.45
2023-07-17T16:05:41.433Z,30.30
2023-07-17T16:08:09.566Z,30.47
2023-07-17T16:10:38.618Z,30.41
2023-07-17T16:13:06.956Z,30.42
2023-07-17T16:15:35.207Z,30.32
2023-07-17T16:18:04.082Z,30.32
2023-07-17T16:20:32.665Z,30.26
2023-07-17T16:23:00.954Z,30.29
2023-07-17T16:25:29.515Z,30.21
2023-07-17T16:27:58.034Z,30.12
2023-07-17T16:30:26.310Z,30.10
2023-07-17T16:32:55.019Z,30.03
2023-07-17T16:35:23.353Z,29.91
2023-07-17T16:37:51.516Z,29.85
2023-07-17T16:40:20.173Z,29.89
2023-07-17T16:42:48.571Z,29.81
2023-07-17T16:45:17.406Z,29.77
2023-07-17T16:47:46.112Z,29.71
2023-07-17T16:50:14.491Z,29.74
2023-07-17T16:52:42.773Z,29.68
2023-07-17T16:55:11.296Z,29.65
2023-07-17T16:57:39.607Z,29.67
2023-07-17T17:00:08.439Z,29.62
2023-07-17T17:02:37.875Z,29.53
2023-07-17T17:05:08.164Z,29.52
2023-07-17T17:07:40.917Z,29.63
2023-07-17T17:10:09.781Z,29.56
2023-07-17T17:12:38.328Z,29.42
2023-07-17T17:15:07.622Z,29.33
2023-07-17T17:17:36.061Z,29.29
2023-07-17T17:20:05.033Z,29.22
2023-07-17T17:22:33.393Z,29.19
2023-07-17T17:25:02.208Z,29.11
2023-07-17T17:27:30.947Z,29.09
2023-07-17T17:30:01.185Z,29.01
2023-07-17T17:32:30.381Z,28.95
2023-07-17T17:34:59.003Z,28.91
2023-07-17T17:37:27.681Z,28.88
2023-07-17T17:39:55.974Z,28.73
2023-07-17T17:42:24.733Z,28.63
2023-07-17T17:44:53.121Z,28.58
2023-07-17T17:47:21.698Z,28.53
2023-07-17T17:49:50.160Z,28.49
2023-07-17T17:52:21.026Z,28.42
2023-07-17T17:54:49.856Z,28.29
2023-07-17T17:57:18.225Z,28.27
2023-07-17T17:59:46.363Z,28.21
2023-07-17T18:02:16.914Z,28.18
2023-07-17T18:04:45.541Z,28.12
2023-07-17T18:07:13.845Z,28.07
2023-07-17T18:09:42.353Z,28.04
2023-07-17T18:12:11.049Z,27.92
2023-07-17T18:14:39.393Z,27.88
2023-07-17T18:17:07.779Z,27.85
2023-07-17T18:19:38.852Z,27.74
2023-07-17T18:22:08.521Z,27.70
2023-07-17T18:24:37.161Z,27.58
2023-07-17T18:27:05.980Z,27.50
2023-07-17T18:29:34.644Z,27.51
2023-07-17T18:32:03.505Z,27.41
2023-07-17T18:34:32.155Z,27.33
2023-07-17T18:37:01.529Z,27.26
2023-07-17T18:39:30.214Z,27.17
2023-07-17T18:42:00.535Z,27.18
2023-07-17T18:44:31.905Z,27.16
2023-07-17T18:47:00.404Z,27.12
2023-07-17T18:49:28.588Z,26.92
2023-07-17T18:51:56.988Z,26.80
2023-07-17T18:54:25.939Z,26.78
2023-07-17T18:56:54.342Z,26.74
2023-07-17T18:59:22.787Z,26.72
2023-07-17T19:01:56.027Z,26.68
2023-07-17T19:04:25.886Z,26.61
2023-07-17T19:06:54.709Z,26.58
2023-07-17T19:09:26.681Z,26.50
2023-07-17T19:11:56.231Z,26.48
2023-07-17T19:14:25.426Z,26.44
2023-07-17T19:16:54.230Z,26.41
2023-07-17T19:19:23.035Z,26.36
2023-07-17T19:21:51.294Z,26.11
2023-07-17T19:24:19.789Z,25.65
2023-07-17T19:26:48.334Z,25.64
2023-07-17T19:29:16.557Z,25.63
2023-07-17T19:31:44.989Z,25.48
2023-07-17T19:34:13.688Z,25.36
2023-07-17T19:36:42.265Z,25.33
2023-07-17T19:39:11.007Z,25.26
2023-07-17T19:41:40.606Z,25.18
2023-07-17T19:44:09.512Z,25.13
2023-07-17T19:46:37.897Z,25.06
2023-07-17T19:49:06.467Z,24.91
2023-07-17T19:51:34.834Z,24.91
2023-07-17T19:54:03.240Z,24.85
2023-07-17T19:56:32.347Z,24.85
2023-07-17T19:59:00.704Z,24.76
2023-07-17T20:01:29.912Z,24.82
2023-07-17T20:03:58.651Z,24.80
2023-07-17T20:06:27.630Z,24.72
2023-07-17T20:08:56.491Z,24.70
2023-07-17T20:11:25.153Z,24.69
2023-07-17T20:13:53.572Z,24.70
2023-07-17T20:16:21.935Z,24.51
2023-07-17T20:18:50.851Z,24.51
2023-07-17T20:21:19.480Z,24.32
2023-07-17T20:23:48.506Z,24.37
2023-07-17T20:26:20.206Z,24.22
2023-07-17T20:28:50.369Z,24.20
2023-07-17T20:31:19.509Z,23.90
2023-07-17T20:33:48.025Z,23.81
2023-07-17T20:36:16.577Z,23.80
2023-07-17T20:38:45.168Z,23.88
2023-07-17T20:41:13.563Z,23.85
2023-07-17T20:43:42.091Z,23.96
2023-07-17T20:46:11.467Z,23.81
2023-07-17T20:48:39.824Z,23.91
2023-07-17T20:51:13.355Z,23.69
2023-07-17T20:53:43.004Z,23.75
2023-07-17T20:56:12.864Z,23.82
2023-07-17T20:58:41.562Z,23.76
2023-07-17T21:01:30.687Z,23.79
2023-07-17T21:04:01.364Z,23.65
2023-07-17T21:06:30.470Z,23.77
2023-07-17T21:08:59.645Z,23.53
2023-07-17T21:11:29.821Z,23.52
2023-07-17T21:13:59.199Z,23.49
2023-07-17T21:16:27.636Z,23.50
2023-07-17T21:18:56.007Z,23.44
2023-07-17T21:21:24.452Z,23.40
2023-07-17T21:23:52.740Z,23.11
2023-07-17T21:26:21.178Z,23.06
2023-07-17T21:29:06.644Z,23.06
2023-07-17T21:31:35.890Z,23.12
2023-07-17T21:34:05.057Z,23.05
2023-07-17T21:36:33.700Z,23.00
2023-07-17T21:39:01.996Z,23.10
2023-07-17T21:41:32.091Z,23.24
2023-07-17T21:44:00.595Z,23.37
2023-07-17T21:46:29.094Z,23.51
2023-07-17T21:48:57.631Z,23.48
2023-07-17T21:51:25.948Z,23.35
2023-07-17T21:53:54.224Z,23.32
2023-07-17T21:56:22.743Z,23.38
2023-07-17T21:58:51.296Z,23.37
2023-07-17T22:01:19.802Z,23.43
2023-07-17T22:03:48.969Z,23.56
2023-07-17T22:06:17.704Z,23.57
2023-07-17T22:08:46.024Z,23.60
2023-07-17T22:11:14.607Z,23.62
2023-07-17T22:13:42.786Z,23.56
2023-07-17T22:16:11.599Z,23.61
2023-07-17T22:18:40.505Z,23.35
2023-07-17T22:21:08.837Z,23.31
2023-07-17T22:23:37.130Z,23.37
2023-07-17T22:26:05.893Z,23.35
2023-07-17T22:28:34.787Z,23.34
2023-07-17T22:31:06.030Z,23.39
2023-07-17T22:33:34.738Z,23.35
2023-07-17T22:36:02.867Z,23.43
2023-07-17T22:38:31.524Z,23.50
2023-07-17T22:41:00.173Z,23.51
2023-07-17T22:43:28.342Z,23.56
2023-07-17T22:45:56.615Z,23.63
2023-07-17T22:48:28.870Z,23.66
2023-07-17T22:50:58.852Z,23.64
2023-07-17T22:53:27.859Z,23.62
2023-07-17T22:55:56.436Z,23.65
2023-07-17T22:58:24.712Z,23.80
2023-07-17T23:00:53.714Z,23.87
2023-07-17T23:03:21.803Z,23.92
2023-07-17T23:05:50.436Z,23.89
2023-07-17T23:08:19.018Z,23.88
2023-07-17T23:10:48.119Z,23.94
2023-07-17T23:13:16.390Z,23.86
2023-07-17T23:15:44.893Z,23.77
2023-07-17T23:18:13.771Z,23.74
2023-07-17T23:20:42.276Z,23.72
2023-07-17T23:23:10.798Z,23.73
2023-07-17T23:25:43.454Z,23.69
2023-07-17T23:28:13.420Z,23.60
2023-07-17T23:30:41.593Z,23.60
2023-07-17T23:33:10.588Z,23.51
2023-07-17T23:35:41.384Z,23.44
2023-07-17T23:38:09.605Z,23.51
2023-07-17T23:40:37.917Z,23.52
2023-07-17T23:43:08.994Z,23.53
2023-07-17T23:45:38.222Z,23.56
2023-07-17T23:48:07.234Z,23.55
2023-07-17T23:50:37.138Z,23.56
2023-07-17T23:53:05.516Z,23.58
2023-07-17T23:55:34.347Z,23.54
2023-07-17T23:58:05.562Z,23.50
